sensor_id;sensor_type;location;lat;lon;timestamp;temperature;humidity
3542;DHT22;1785;47.388;8.538;2023-12-14T00:01:52;9.70;99.90
3542;DHT22;1785;47.388;8.538;2023-12-14T00:04:18;9.70;99.90
3542;DHT22;1785;47.388;8.538;2023-12-14T00:06:45;9.80;99.90
3542;DHT22;1785;47.388;8.538;2023-12-14T00:09:11;9.70;99.90
3542;DHT22;1785;47.388;8.538;2023-12-14T00:11:46;9.80;99.90
3542;DHT22;1785;47.388;8.538;2023-12-14T00:14:12;10.00;99.90
3542;DHT22;1785;47.388;8.538;2023-12-14T00:16:39;10.00;99.90
3542;DHT22;1785;47.388;8.538;2023-12-14T00:19:06;10.10;99.90
3542;DHT22;1785;47.388;8.538;2023-12-14T00:21:32;10.10;99.90
3542;DHT22;1785;47.388;8.538;2023-12-14T00:23:58;10.10;99.90
3542;DHT22;1785;47.388;8.538;2023-12-14T00:26:25;10.10;99.90
3542;DHT22;1785;47.388;8.538;2023-12-14T00:28:51;9.90;99.90
3542;DHT22;1785;47.388;8.538;2023-12-14T00:31:17;9.70;99.90
3542;DHT22;1785;47.388;8.538;2023-12-14T00:33:43;9.50;99.90
3542;DHT22;1785;47.388;8.538;2023-12-14T00:36:17;9.40;99.90
3542;DHT22;1785;47.388;8.538;2023-12-14T00:38:44;9.50;99.90
3542;DHT22;1785;47.388;8.538;2023-12-14T00:41:10;9.50;99.90
3542;DHT22;1785;47.388;8.538;2023-12-14T00:43:37;9.50;99.90
3542;DHT22;1785;47.388;8.538;2023-12-14T00:46:04;9.60;99.90
3542;DHT22;1785;47.388;8.538;2023-12-14T00:48:30;9.70;99.90
3542;DHT22;1785;47.388;8.538;2023-12-14T00:50:56;9.90;99.90
3542;DHT22;1785;47.388;8.538;2023-12-14T00:53:23;10.00;99.90
3542;DHT22;1785;47.388;8.538;2023-12-14T00:55:49;10.00;99.90
3542;DHT22;1785;47.388;8.538;2023-12-14T00:58:15;10.00;99.90
3542;DHT22;1785;47.388;8.538;2023-12-14T01:00:42;9.70;99.90
3542;DHT22;1785;47.388;8.538;2023-12-14T01:03:08;9.40;99.90
3542;DHT22;1785;47.388;8.538;2023-12-14T01:05:34;9.40;99.90
3542;DHT22;1785;47.388;8.538;2023-12-14T01:08:00;9.20;99.90
3542;DHT22;1785;47.388;8.538;2023-12-14T01:10:28;9.10;99.90
3542;DHT22;1785;47.388;8.538;2023-12-14T01:12:54;9.30;99.90
3542;DHT22;1785;47.388;8.538;2023-12-14T01:15:20;9.20;99.90
3542;DHT22;1785;47.388;8.538;2023-12-14T01:17:46;9.30;99.90
3542;DHT22;1785;47.388;8.538;2023-12-14T01:20:12;9.30;99.90
3542;DHT22;1785;47.388;8.538;2023-12-14T01:22:39;9.10;99.90
3542;DHT22;1785;47.388;8.538;2023-12-14T01:25:05;9.30;99.90
3542;DHT22;1785;47.388;8.538;2023-12-14T01:27:32;9.10;99.90
3542;DHT22;1785;47.388;8.538;2023-12-14T01:29:58;8.90;99.90
3542;DHT22;1785;47.388;8.538;2023-12-14T01:32:25;8.90;99.90
3542;DHT22;1785;47.388;8.538;2023-12-14T01:34:51;9.10;99.90
3542;DHT22;1785;47.388;8.538;2023-12-14T01:37:17;9.30;99.90
3542;DHT22;1785;47.388;8.538;2023-12-14T01:39:43;9.20;99.90
3542;DHT22;1785;47.388;8.538;2023-12-14T01:42:09;9.30;99.90
3542;DHT22;1785;47.388;8.538;2023-12-14T01:44:36;9.30;99.90
3542;DHT22;1785;47.388;8.538;2023-12-14T01:47:03;9.40;99.90
3542;DHT22;1785;47.388;8.538;2023-12-14T01:49:29;9.50;99.90
3542;DHT22;1785;47.388;8.538;2023-12-14T01:51:55;9.60;99.90
3542;DHT22;1785;47.388;8.538;2023-12-14T01:54:22;9.50;99.90
3542;DHT22;1785;47.388;8.538;2023-12-14T01:56:48;9.40;99.90
3542;DHT22;1785;47.388;8.538;2023-12-14T01:59:14;9.30;99.90
3542;DHT22;1785;47.388;8.538;2023-12-14T02:01:43;9.30;99.90
3542;DHT22;1785;47.388;8.538;2023-12-14T02:04:10;9.20;99.90
3542;DHT22;1785;47.388;8.538;2023-12-14T02:06:37;9.20;99.90
3542;DHT22;1785;47.388;8.538;2023-12-14T02:09:04;9.20;99.90
3542;DHT22;1785;47.388;8.538;2023-12-14T02:11:30;9.30;99.90
3542;DHT22;1785;47.388;8.538;2023-12-14T02:13:57;9.20;99.90
3542;DHT22;1785;47.388;8.538;2023-12-14T02:16:23;9.10;99.90
3542;DHT22;1785;47.388;8.538;2023-12-14T02:18:50;8.90;99.90
3542;DHT22;1785;47.388;8.538;2023-12-14T02:21:16;8.90;99.90
3542;DHT22;1785;47.388;8.538;2023-12-14T02:23:45;8.80;99.90
3542;DHT22;1785;47.388;8.538;2023-12-14T02:26:11;9.00;99.90
3542;DHT22;1785;47.388;8.538;2023-12-14T02:28:38;9.00;99.90
3542;DHT22;1785;47.388;8.538;2023-12-14T02:31:04;9.10;99.90
3542;DHT22;1785;47.388;8.538;2023-12-14T02:33:30;9.10;99.90
3542;DHT22;1785;47.388;8.538;2023-12-14T02:35:57;9.20;99.90
3542;DHT22;1785;47.388;8.538;2023-12-14T02:38:23;8.90;99.90
3542;DHT22;1785;47.388;8.538;2023-12-14T02:40:50;8.90;99.90
3542;DHT22;1785;47.388;8.538;2023-12-14T02:43:18;8.90;99.90
3542;DHT22;1785;47.388;8.538;2023-12-14T02:45:44;8.70;99.90
3542;DHT22;1785;47.388;8.538;2023-12-14T02:48:11;8.50;99.90
3542;DHT22;1785;47.388;8.538;2023-12-14T02:50:37;8.70;99.90
3542;DHT22;1785;47.388;8.538;2023-12-14T02:53:03;8.40;99.90
3542;DHT22;1785;47.388;8.538;2023-12-14T02:55:30;8.50;99.90
3542;DHT22;1785;47.388;8.538;2023-12-14T02:57:56;8.60;99.90
3542;DHT22;1785;47.388;8.538;2023-12-14T03:00:23;8.70;99.90
3542;DHT22;1785;47.388;8.538;2023-12-14T03:02:49;8.70;99.90
3542;DHT22;1785;47.388;8.538;2023-12-14T03:05:16;8.70;99.90
3542;DHT22;1785;47.388;8.538;2023-12-14T03:07:42;8.90;99.90
3542;DHT22;1785;47.388;8.538;2023-12-14T03:10:09;8.90;99.90
3542;DHT22;1785;47.388;8.538;2023-12-14T03:12:35;9.00;99.90
3542;DHT22;1785;47.388;8.538;2023-12-14T03:15:03;9.00;99.90
3542;DHT22;1785;47.388;8.538;2023-12-14T03:17:29;9.20;99.90
3542;DHT22;1785;47.388;8.538;2023-12-14T03:19:55;8.90;99.90
3542;DHT22;1785;47.388;8.538;2023-12-14T03:22:22;8.80;99.90
3542;DHT22;1785;47.388;8.538;2023-12-14T03:24:48;8.80;99.90
3542;DHT22;1785;47.388;8.538;2023-12-14T03:27:14;8.90;99.90
3542;DHT22;1785;47.388;8.538;2023-12-14T03:29:41;9.10;99.90
3542;DHT22;1785;47.388;8.538;2023-12-14T03:32:08;9.20;99.90
3542;DHT22;1785;47.388;8.538;2023-12-14T03:34:34;9.30;99.90
3542;DHT22;1785;47.388;8.538;2023-12-14T03:37:00;9.30;99.90
3542;DHT22;1785;47.388;8.538;2023-12-14T03:39:27;9.30;99.90
3542;DHT22;1785;47.388;8.538;2023-12-14T03:41:53;9.30;99.90
3542;DHT22;1785;47.388;8.538;2023-12-14T03:44:19;9.20;99.90
3542;DHT22;1785;47.388;8.538;2023-12-14T03:46:46;9.30;99.90
3542;DHT22;1785;47.388;8.538;2023-12-14T03:49:13;9.30;99.90
3542;DHT22;1785;47.388;8.538;2023-12-14T03:51:40;9.30;99.90
3542;DHT22;1785;47.388;8.538;2023-12-14T03:54:06;9.20;99.90
3542;DHT22;1785;47.388;8.538;2023-12-14T03:56:32;8.90;99.90
3542;DHT22;1785;47.388;8.538;2023-12-14T03:58:59;9.00;99.90
3542;DHT22;1785;47.388;8.538;2023-12-14T04:01:25;9.10;99.90
3542;DHT22;1785;47.388;8.538;2023-12-14T04:03:51;9.20;99.90
3542;DHT22;1785;47.388;8.538;2023-12-14T04:06:18;9.20;99.90
3542;DHT22;1785;47.388;8.538;2023-12-14T04:08:45;9.20;99.90
3542;DHT22;1785;47.388;8.538;2023-12-14T04:11:11;9.30;99.90
3542;DHT22;1785;47.388;8.538;2023-12-14T04:13:38;9.40;99.90
3542;DHT22;1785;47.388;8.538;2023-12-14T04:16:06;9.50;99.90
3542;DHT22;1785;47.388;8.538;2023-12-14T04:18:33;9.60;99.90
3542;DHT22;1785;47.388;8.538;2023-12-14T04:20:59;9.50;99.90
3542;DHT22;1785;47.388;8.538;2023-12-14T04:23:26;9.30;99.90
3542;DHT22;1785;47.388;8.538;2023-12-14T04:25:52;9.30;99.90
3542;DHT22;1785;47.388;8.538;2023-12-14T04:28:19;9.40;99.90
3542;DHT22;1785;47.388;8.538;2023-12-14T04:30:45;9.40;99.90
3542;DHT22;1785;47.388;8.538;2023-12-14T04:33:11;9.50;99.90
3542;DHT22;1785;47.388;8.538;2023-12-14T04:35:38;9.60;99.90
3542;DHT22;1785;47.388;8.538;2023-12-14T04:38:04;9.70;99.90
3542;DHT22;1785;47.388;8.538;2023-12-14T04:40:31;9.70;99.90
3542;DHT22;1785;47.388;8.538;2023-12-14T04:42:58;9.60;99.90
3542;DHT22;1785;47.388;8.538;2023-12-14T04:45:24;9.50;99.90
3542;DHT22;1785;47.388;8.538;2023-12-14T04:47:50;9.50;99.90
3542;DHT22;1785;47.388;8.538;2023-12-14T04:50:17;9.40;99.90
3542;DHT22;1785;47.388;8.538;2023-12-14T04:52:43;9.10;99.90
3542;DHT22;1785;47.388;8.538;2023-12-14T04:55:09;9.20;99.90
3542;DHT22;1785;47.388;8.538;2023-12-14T04:57:36;9.30;99.90
3542;DHT22;1785;47.388;8.538;2023-12-14T05:00:03;9.20;99.90
3542;DHT22;1785;47.388;8.538;2023-12-14T05:02:32;9.30;99.90
3542;DHT22;1785;47.388;8.538;2023-12-14T05:04:58;9.60;99.90
3542;DHT22;1785;47.388;8.538;2023-12-14T05:07:25;9.70;99.90
3542;DHT22;1785;47.388;8.538;2023-12-14T05:09:51;9.60;99.90
3542;DHT22;1785;47.388;8.538;2023-12-14T05:12:17;9.40;99.90
3542;DHT22;1785;47.388;8.538;2023-12-14T05:14:44;9.50;99.90
3542;DHT22;1785;47.388;8.538;2023-12-14T05:17:10;9.60;99.90
3542;DHT22;1785;47.388;8.538;2023-12-14T05:19:37;9.60;99.90
3542;DHT22;1785;47.388;8.538;2023-12-14T05:22:03;9.70;99.90
3542;DHT22;1785;47.388;8.538;2023-12-14T05:24:30;9.80;99.90
3542;DHT22;1785;47.388;8.538;2023-12-14T05:26:56;9.80;99.90
3542;DHT22;1785;47.388;8.538;2023-12-14T05:29:22;9.60;99.90
3542;DHT22;1785;47.388;8.538;2023-12-14T05:31:49;9.40;99.90
3542;DHT22;1785;47.388;8.538;2023-12-14T05:34:16;9.40;99.90
3542;DHT22;1785;47.388;8.538;2023-12-14T05:36:42;9.40;99.90
3542;DHT22;1785;47.388;8.538;2023-12-14T05:39:08;9.20;99.90
3542;DHT22;1785;47.388;8.538;2023-12-14T05:41:39;9.30;99.90
3542;DHT22;1785;47.388;8.538;2023-12-14T05:44:06;9.50;99.90
3542;DHT22;1785;47.388;8.538;2023-12-14T05:46:33;9.70;99.90
3542;DHT22;1785;47.388;8.538;2023-12-14T05:49:00;9.70;99.90
3542;DHT22;1785;47.388;8.538;2023-12-14T05:51:27;9.50;99.90
3542;DHT22;1785;47.388;8.538;2023-12-14T05:53:54;9.30;99.90
3542;DHT22;1785;47.388;8.538;2023-12-14T05:56:20;9.40;99.90
3542;DHT22;1785;47.388;8.538;2023-12-14T05:58:46;9.40;99.90
3542;DHT22;1785;47.388;8.538;2023-12-14T06:01:12;9.40;99.90
3542;DHT22;1785;47.388;8.538;2023-12-14T06:03:39;9.40;99.90
3542;DHT22;1785;47.388;8.538;2023-12-14T06:06:06;9.20;99.90
3542;DHT22;1785;47.388;8.538;2023-12-14T06:08:32;9.20;99.90
3542;DHT22;1785;47.388;8.538;2023-12-14T06:10:58;9.30;99.90
3542;DHT22;1785;47.388;8.538;2023-12-14T06:13:25;9.40;99.90
3542;DHT22;1785;47.388;8.538;2023-12-14T06:15:51;9.30;99.90
3542;DHT22;1785;47.388;8.538;2023-12-14T06:18:17;9.30;99.90
3542;DHT22;1785;47.388;8.538;2023-12-14T06:20:44;9.40;99.90
3542;DHT22;1785;47.388;8.538;2023-12-14T06:23:11;9.20;99.90
3542;DHT22;1785;47.388;8.538;2023-12-14T06:25:37;9.00;99.90
3542;DHT22;1785;47.388;8.538;2023-12-14T06:28:04;8.90;99.90
3542;DHT22;1785;47.388;8.538;2023-12-14T06:30:30;8.80;99.90
3542;DHT22;1785;47.388;8.538;2023-12-14T06:32:56;8.70;99.90
3542;DHT22;1785;47.388;8.538;2023-12-14T06:35:23;8.60;99.90
3542;DHT22;1785;47.388;8.538;2023-12-14T06:37:49;8.70;99.90
3542;DHT22;1785;47.388;8.538;2023-12-14T06:40:16;8.80;99.90
3542;DHT22;1785;47.388;8.538;2023-12-14T06:42:43;8.90;99.90
3542;DHT22;1785;47.388;8.538;2023-12-14T06:45:10;9.00;99.90
3542;DHT22;1785;47.388;8.538;2023-12-14T06:47:36;9.00;99.90
3542;DHT22;1785;47.388;8.538;2023-12-14T06:50:02;8.80;99.90
3542;DHT22;1785;47.388;8.538;2023-12-14T06:52:29;9.00;99.90
3542;DHT22;1785;47.388;8.538;2023-12-14T06:54:55;9.00;99.90
3542;DHT22;1785;47.388;8.538;2023-12-14T06:57:22;8.90;99.90
3542;DHT22;1785;47.388;8.538;2023-12-14T06:59:49;9.00;99.90
3542;DHT22;1785;47.388;8.538;2023-12-14T07:02:15;8.80;99.90
3542;DHT22;1785;47.388;8.538;2023-12-14T07:04:42;8.60;99.90
3542;DHT22;1785;47.388;8.538;2023-12-14T07:07:08;8.80;99.90
3542;DHT22;1785;47.388;8.538;2023-12-14T07:09:35;9.00;99.90
3542;DHT22;1785;47.388;8.538;2023-12-14T07:12:01;9.10;99.90
3542;DHT22;1785;47.388;8.538;2023-12-14T07:14:29;9.00;99.90
3542;DHT22;1785;47.388;8.538;2023-12-14T07:16:55;9.00;99.90
3542;DHT22;1785;47.388;8.538;2023-12-14T07:19:21;8.80;99.90
3542;DHT22;1785;47.388;8.538;2023-12-14T07:21:48;8.90;99.90
3542;DHT22;1785;47.388;8.538;2023-12-14T07:24:15;8.70;99.90
3542;DHT22;1785;47.388;8.538;2023-12-14T07:26:42;8.40;99.90
3542;DHT22;1785;47.388;8.538;2023-12-14T07:29:08;8.40;99.90
3542;DHT22;1785;47.388;8.538;2023-12-14T07:31:35;8.70;99.90
3542;DHT22;1785;47.388;8.538;2023-12-14T07:34:02;8.70;99.90
3542;DHT22;1785;47.388;8.538;2023-12-14T07:36:28;8.60;99.90
3542;DHT22;1785;47.388;8.538;2023-12-14T07:38:54;8.40;99.90
3542;DHT22;1785;47.388;8.538;2023-12-14T07:41:21;8.50;99.90
3542;DHT22;1785;47.388;8.538;2023-12-14T07:43:52;8.40;99.90
3542;DHT22;1785;47.388;8.538;2023-12-14T07:46:18;8.50;99.90
3542;DHT22;1785;47.388;8.538;2023-12-14T07:48:45;8.70;99.90
3542;DHT22;1785;47.388;8.538;2023-12-14T07:51:12;8.60;99.90
3542;DHT22;1785;47.388;8.538;2023-12-14T07:53:39;8.40;99.90
3542;DHT22;1785;47.388;8.538;2023-12-14T07:56:07;8.50;99.90
3542;DHT22;1785;47.388;8.538;2023-12-14T07:58:33;8.30;99.90
3542;DHT22;1785;47.388;8.538;2023-12-14T08:01:00;8.30;99.90
3542;DHT22;1785;47.388;8.538;2023-12-14T08:03:26;8.30;99.90
3542;DHT22;1785;47.388;8.538;2023-12-14T08:05:53;8.20;99.90
3542;DHT22;1785;47.388;8.538;2023-12-14T08:08:20;8.10;99.90
3542;DHT22;1785;47.388;8.538;2023-12-14T08:10:46;8.10;99.90
3542;DHT22;1785;47.388;8.538;2023-12-14T08:13:13;8.30;99.90
3542;DHT22;1785;47.388;8.538;2023-12-14T08:15:43;8.30;99.90
3542;DHT22;1785;47.388;8.538;2023-12-14T08:18:09;8.30;99.90
3542;DHT22;1785;47.388;8.538;2023-12-14T08:20:35;8.40;99.90
3542;DHT22;1785;47.388;8.538;2023-12-14T08:23:02;8.50;99.90
3542;DHT22;1785;47.388;8.538;2023-12-14T08:25:29;8.60;99.90
3542;DHT22;1785;47.388;8.538;2023-12-14T08:27:56;8.60;99.90
3542;DHT22;1785;47.388;8.538;2023-12-14T08:30:22;8.70;99.90
3542;DHT22;1785;47.388;8.538;2023-12-14T08:32:49;8.70;99.90
3542;DHT22;1785;47.388;8.538;2023-12-14T08:35:16;8.80;99.90
3542;DHT22;1785;47.388;8.538;2023-12-14T08:37:42;8.90;99.90
3542;DHT22;1785;47.388;8.538;2023-12-14T08:40:11;9.00;99.90
3542;DHT22;1785;47.388;8.538;2023-12-14T08:42:37;8.80;99.90
3542;DHT22;1785;47.388;8.538;2023-12-14T08:45:04;8.90;99.90
3542;DHT22;1785;47.388;8.538;2023-12-14T08:47:31;8.70;99.90
3542;DHT22;1785;47.388;8.538;2023-12-14T08:49:57;8.60;99.90
3542;DHT22;1785;47.388;8.538;2023-12-14T08:52:24;8.50;99.90
3542;DHT22;1785;47.388;8.538;2023-12-14T08:54:50;8.40;99.90
3542;DHT22;1785;47.388;8.538;2023-12-14T08:57:17;8.60;99.90
3542;DHT22;1785;47.388;8.538;2023-12-14T08:59:44;8.50;99.90
3542;DHT22;1785;47.388;8.538;2023-12-14T09:02:10;8.60;99.90
3542;DHT22;1785;47.388;8.538;2023-12-14T09:04:37;8.60;99.90
3542;DHT22;1785;47.388;8.538;2023-12-14T09:07:04;8.40;99.90
3542;DHT22;1785;47.388;8.538;2023-12-14T09:09:30;8.40;99.90
3542;DHT22;1785;47.388;8.538;2023-12-14T09:11:57;8.40;99.90
3542;DHT22;1785;47.388;8.538;2023-12-14T09:14:25;8.40;99.90
3542;DHT22;1785;47.388;8.538;2023-12-14T09:16:51;8.40;99.90
3542;DHT22;1785;47.388;8.538;2023-12-14T09:19:17;8.40;99.90
3542;DHT22;1785;47.388;8.538;2023-12-14T09:21:44;8.50;99.90
3542;DHT22;1785;47.388;8.538;2023-12-14T09:24:11;8.60;99.90
3542;DHT22;1785;47.388;8.538;2023-12-14T09:26:37;8.70;99.90
3542;DHT22;1785;47.388;8.538;2023-12-14T09:29:03;8.80;99.90
3542;DHT22;1785;47.388;8.538;2023-12-14T09:31:30;8.80;99.90
3542;DHT22;1785;47.388;8.538;2023-12-14T09:33:56;8.60;99.90
3542;DHT22;1785;47.388;8.538;2023-12-14T09:36:22;8.50;99.90
3542;DHT22;1785;47.388;8.538;2023-12-14T09:38:49;8.40;99.90
3542;DHT22;1785;47.388;8.538;2023-12-14T09:41:16;8.40;99.90
3542;DHT22;1785;47.388;8.538;2023-12-14T09:43:42;8.50;99.90
3542;DHT22;1785;47.388;8.538;2023-12-14T09:46:09;8.50;99.90
3542;DHT22;1785;47.388;8.538;2023-12-14T09:48:39;8.40;99.90
3542;DHT22;1785;47.388;8.538;2023-12-14T09:51:06;8.50;99.90
3542;DHT22;1785;47.388;8.538;2023-12-14T09:53:33;8.70;99.90
3542;DHT22;1785;47.388;8.538;2023-12-14T09:55:59;8.70;99.90
3542;DHT22;1785;47.388;8.538;2023-12-14T09:58:26;8.80;99.90
3542;DHT22;1785;47.388;8.538;2023-12-14T10:00:52;8.90;99.90
3542;DHT22;1785;47.388;8.538;2023-12-14T10:03:20;8.70;99.90
3542;DHT22;1785;47.388;8.538;2023-12-14T10:05:48;8.50;99.90
3542;DHT22;1785;47.388;8.538;2023-12-14T10:08:14;8.70;99.90
3542;DHT22;1785;47.388;8.538;2023-12-14T10:10:41;8.80;99.90
3542;DHT22;1785;47.388;8.538;2023-12-14T10:13:07;8.90;99.90
3542;DHT22;1785;47.388;8.538;2023-12-14T10:15:44;8.90;99.90
3542;DHT22;1785;47.388;8.538;2023-12-14T10:18:11;8.90;99.90
3542;DHT22;1785;47.388;8.538;2023-12-14T10:20:37;8.90;99.90
3542;DHT22;1785;47.388;8.538;2023-12-14T10:23:06;8.80;99.90
3542;DHT22;1785;47.388;8.538;2023-12-14T10:25:33;8.60;99.90
3542;DHT22;1785;47.388;8.538;2023-12-14T10:27:59;8.70;99.90
3542;DHT22;1785;47.388;8.538;2023-12-14T10:30:27;9.00;99.90
3542;DHT22;1785;47.388;8.538;2023-12-14T10:32:53;9.10;99.90
3542;DHT22;1785;47.388;8.538;2023-12-14T10:35:20;8.90;99.90
3542;DHT22;1785;47.388;8.538;2023-12-14T10:37:50;8.80;99.90
3542;DHT22;1785;47.388;8.538;2023-12-14T10:40:17;8.70;99.90
3542;DHT22;1785;47.388;8.538;2023-12-14T10:42:44;8.70;99.90
3542;DHT22;1785;47.388;8.538;2023-12-14T10:45:12;8.80;99.90
3542;DHT22;1785;47.388;8.538;2023-12-14T10:47:39;8.70;99.90
3542;DHT22;1785;47.388;8.538;2023-12-14T10:50:10;8.60;99.90
3542;DHT22;1785;47.388;8.538;2023-12-14T10:52:37;8.40;99.90
3542;DHT22;1785;47.388;8.538;2023-12-14T10:55:07;8.30;99.90
3542;DHT22;1785;47.388;8.538;2023-12-14T10:57:37;8.40;99.90
3542;DHT22;1785;47.388;8.538;2023-12-14T11:00:04;8.50;99.90
3542;DHT22;1785;47.388;8.538;2023-12-14T11:02:39;8.40;99.90
3542;DHT22;1785;47.388;8.538;2023-12-14T11:05:06;8.60;99.90
3542;DHT22;1785;47.388;8.538;2023-12-14T11:07:45;8.60;99.90
3542;DHT22;1785;47.388;8.538;2023-12-14T11:10:12;8.60;99.90
3542;DHT22;1785;47.388;8.538;2023-12-14T11:12:50;8.60;99.90
3542;DHT22;1785;47.388;8.538;2023-12-14T11:15:17;8.50;99.90
3542;DHT22;1785;47.388;8.538;2023-12-14T11:17:44;8.50;99.90
3542;DHT22;1785;47.388;8.538;2023-12-14T11:20:30;8.70;99.90
3542;DHT22;1785;47.388;8.538;2023-12-14T11:23:07;8.80;99.90
3542;DHT22;1785;47.388;8.538;2023-12-14T11:25:35;8.60;99.90
3542;DHT22;1785;47.388;8.538;2023-12-14T11:28:07;8.70;99.90
3542;DHT22;1785;47.388;8.538;2023-12-14T11:30:34;9.00;99.90
3542;DHT22;1785;47.388;8.538;2023-12-14T11:33:01;9.10;99.90
3542;DHT22;1785;47.388;8.538;2023-12-14T11:35:27;9.10;99.90
3542;DHT22;1785;47.388;8.538;2023-12-14T11:37:53;9.00;99.90
3542;DHT22;1785;47.388;8.538;2023-12-14T11:40:22;8.90;99.90
3542;DHT22;1785;47.388;8.538;2023-12-14T11:42:57;9.10;99.90
3542;DHT22;1785;47.388;8.538;2023-12-14T11:45:25;8.90;99.90
3542;DHT22;1785;47.388;8.538;2023-12-14T11:47:51;8.90;99.90
3542;DHT22;1785;47.388;8.538;2023-12-14T11:50:18;8.80;99.90
3542;DHT22;1785;47.388;8.538;2023-12-14T11:52:45;8.80;99.90
3542;DHT22;1785;47.388;8.538;2023-12-14T11:55:11;8.70;99.90
3542;DHT22;1785;47.388;8.538;2023-12-14T11:57:38;8.60;99.90
3542;DHT22;1785;47.388;8.538;2023-12-14T12:00:06;8.70;99.90
3542;DHT22;1785;47.388;8.538;2023-12-14T12:02:35;8.80;99.90
3542;DHT22;1785;47.388;8.538;2023-12-14T12:05:02;8.60;99.90
3542;DHT22;1785;47.388;8.538;2023-12-14T12:07:28;8.70;99.90
3542;DHT22;1785;47.388;8.538;2023-12-14T12:09:55;8.90;99.90
3542;DHT22;1785;47.388;8.538;2023-12-14T12:12:21;9.00;99.90
3542;DHT22;1785;47.388;8.538;2023-12-14T12:14:48;8.80;99.90
3542;DHT22;1785;47.388;8.538;2023-12-14T12:17:15;8.70;99.90
3542;DHT22;1785;47.388;8.538;2023-12-14T12:19:41;9.00;99.90
3542;DHT22;1785;47.388;8.538;2023-12-14T12:22:09;8.90;99.90
3542;DHT22;1785;47.388;8.538;2023-12-14T12:24:35;9.10;99.90
3542;DHT22;1785;47.388;8.538;2023-12-14T12:27:02;8.90;99.90
3542;DHT22;1785;47.388;8.538;2023-12-14T12:29:29;9.00;99.90
3542;DHT22;1785;47.388;8.538;2023-12-14T12:31:56;8.90;99.90
3542;DHT22;1785;47.388;8.538;2023-12-14T12:34:22;9.00;99.90
3542;DHT22;1785;47.388;8.538;2023-12-14T12:36:49;9.10;99.90
3542;DHT22;1785;47.388;8.538;2023-12-14T12:39:16;9.10;99.90
3542;DHT22;1785;47.388;8.538;2023-12-14T12:41:42;9.20;99.90
3542;DHT22;1785;47.388;8.538;2023-12-14T12:44:09;9.40;99.90
3542;DHT22;1785;47.388;8.538;2023-12-14T12:46:35;9.40;99.90
3542;DHT22;1785;47.388;8.538;2023-12-14T12:49:02;9.60;99.90
3542;DHT22;1785;47.388;8.538;2023-12-14T12:51:30;9.30;99.90
3542;DHT22;1785;47.388;8.538;2023-12-14T12:53:58;9.10;99.90
3542;DHT22;1785;47.388;8.538;2023-12-14T12:56:26;9.00;99.90
3542;DHT22;1785;47.388;8.538;2023-12-14T12:58:53;9.00;99.90
3542;DHT22;1785;47.388;8.538;2023-12-14T13:01:20;9.10;99.90
3542;DHT22;1785;47.388;8.538;2023-12-14T13:06:15;9.30;99.90
3542;DHT22;1785;47.388;8.538;2023-12-14T13:08:42;9.30;99.90
3542;DHT22;1785;47.388;8.538;2023-12-14T13:11:09;9.20;99.90
3542;DHT22;1785;47.388;8.538;2023-12-14T13:13:35;9.20;99.90
3542;DHT22;1785;47.388;8.538;2023-12-14T13:16:02;9.40;99.90
3542;DHT22;1785;47.388;8.538;2023-12-14T13:18:28;9.60;99.90
3542;DHT22;1785;47.388;8.538;2023-12-14T13:20:54;9.40;99.90
3542;DHT22;1785;47.388;8.538;2023-12-14T13:23:21;9.40;99.90
3542;DHT22;1785;47.388;8.538;2023-12-14T13:25:47;9.50;99.90
3542;DHT22;1785;47.388;8.538;2023-12-14T13:28:14;9.40;99.90
3542;DHT22;1785;47.388;8.538;2023-12-14T13:30:41;9.40;99.90
3542;DHT22;1785;47.388;8.538;2023-12-14T13:33:08;9.50;99.90
3542;DHT22;1785;47.388;8.538;2023-12-14T13:35:35;9.30;99.90
3542;DHT22;1785;47.388;8.538;2023-12-14T13:38:01;9.40;99.90
3542;DHT22;1785;47.388;8.538;2023-12-14T13:40:27;9.60;99.90
3542;DHT22;1785;47.388;8.538;2023-12-14T13:42:53;9.70;99.90
3542;DHT22;1785;47.388;8.538;2023-12-14T13:45:21;9.80;99.90
3542;DHT22;1785;47.388;8.538;2023-12-14T13:47:47;9.90;99.90
3542;DHT22;1785;47.388;8.538;2023-12-14T13:50:14;10.10;99.90
3542;DHT22;1785;47.388;8.538;2023-12-14T13:52:40;9.90;99.90
3542;DHT22;1785;47.388;8.538;2023-12-14T13:55:07;9.70;99.90
3542;DHT22;1785;47.388;8.538;2023-12-14T13:57:33;9.60;99.90
3542;DHT22;1785;47.388;8.538;2023-12-14T13:59:59;9.40;99.90
3542;DHT22;1785;47.388;8.538;2023-12-14T14:02:26;9.30;99.90
3542;DHT22;1785;47.388;8.538;2023-12-14T14:04:54;9.20;99.90
3542;DHT22;1785;47.388;8.538;2023-12-14T14:07:20;9.30;99.90
3542;DHT22;1785;47.388;8.538;2023-12-14T14:09:48;9.10;99.90
3542;DHT22;1785;47.388;8.538;2023-12-14T14:12:14;8.90;99.90
3542;DHT22;1785;47.388;8.538;2023-12-14T14:14:40;9.00;99.90
3542;DHT22;1785;47.388;8.538;2023-12-14T14:17:07;9.20;99.90
3542;DHT22;1785;47.388;8.538;2023-12-14T14:19:34;9.50;99.90
3542;DHT22;1785;47.388;8.538;2023-12-14T14:22:00;9.50;99.90
3542;DHT22;1785;47.388;8.538;2023-12-14T14:24:27;9.50;99.90
3542;DHT22;1785;47.388;8.538;2023-12-14T14:26:53;9.50;99.90
3542;DHT22;1785;47.388;8.538;2023-12-14T14:29:20;9.60;99.90
3542;DHT22;1785;47.388;8.538;2023-12-14T14:31:46;9.40;99.90
3542;DHT22;1785;47.388;8.538;2023-12-14T14:34:13;9.40;99.90
3542;DHT22;1785;47.388;8.538;2023-12-14T14:36:40;9.40;99.90
3542;DHT22;1785;47.388;8.538;2023-12-14T14:39:06;9.20;99.90
3542;DHT22;1785;47.388;8.538;2023-12-14T14:41:34;9.50;99.90
3542;DHT22;1785;47.388;8.538;2023-12-14T14:44:00;9.50;99.90
3542;DHT22;1785;47.388;8.538;2023-12-14T14:46:26;9.50;99.90
3542;DHT22;1785;47.388;8.538;2023-12-14T14:48:52;9.50;99.90
3542;DHT22;1785;47.388;8.538;2023-12-14T14:51:19;9.30;99.90
3542;DHT22;1785;47.388;8.538;2023-12-14T14:53:46;9.10;99.90
3542;DHT22;1785;47.388;8.538;2023-12-14T14:56:14;9.10;99.90
3542;DHT22;1785;47.388;8.538;2023-12-14T14:58:40;9.40;99.90
3542;DHT22;1785;47.388;8.538;2023-12-14T15:01:06;9.40;99.90
3542;DHT22;1785;47.388;8.538;2023-12-14T15:03:33;9.30;99.90
3542;DHT22;1785;47.388;8.538;2023-12-14T15:06:00;9.50;99.90
3542;DHT22;1785;47.388;8.538;2023-12-14T15:08:26;9.50;99.90
3542;DHT22;1785;47.388;8.538;2023-12-14T15:10:53;9.40;99.90
3542;DHT22;1785;47.388;8.538;2023-12-14T15:13:21;9.50;99.90
3542;DHT22;1785;47.388;8.538;2023-12-14T15:15:48;9.40;99.90
3542;DHT22;1785;47.388;8.538;2023-12-14T15:18:14;9.50;99.90
3542;DHT22;1785;47.388;8.538;2023-12-14T15:20:41;9.40;99.90
3542;DHT22;1785;47.388;8.538;2023-12-14T15:23:08;9.50;99.90
3542;DHT22;1785;47.388;8.538;2023-12-14T15:25:34;9.60;99.90
3542;DHT22;1785;47.388;8.538;2023-12-14T15:28:01;9.80;99.90
3542;DHT22;1785;47.388;8.538;2023-12-14T15:30:28;9.90;99.90
3542;DHT22;1785;47.388;8.538;2023-12-14T15:32:55;9.60;99.90
3542;DHT22;1785;47.388;8.538;2023-12-14T15:35:21;9.40;99.90
3542;DHT22;1785;47.388;8.538;2023-12-14T15:37:47;9.50;99.90
3542;DHT22;1785;47.388;8.538;2023-12-14T15:40:14;9.60;99.90
3542;DHT22;1785;47.388;8.538;2023-12-14T15:42:40;10.40;99.90
3542;DHT22;1785;47.388;8.538;2023-12-14T15:45:08;11.50;99.90
3542;DHT22;1785;47.388;8.538;2023-12-14T15:47:35;12.30;99.90
3542;DHT22;1785;47.388;8.538;2023-12-14T15:50:01;13.00;99.90
3542;DHT22;1785;47.388;8.538;2023-12-14T15:52:28;13.30;99.90
3542;DHT22;1785;47.388;8.538;2023-12-14T15:54:55;13.50;99.90
3542;DHT22;1785;47.388;8.538;2023-12-14T15:57:21;12.90;99.90
3542;DHT22;1785;47.388;8.538;2023-12-14T15:59:47;12.80;99.90
3542;DHT22;1785;47.388;8.538;2023-12-14T16:02:14;12.70;99.90
3542;DHT22;1785;47.388;8.538;2023-12-14T16:04:40;12.50;99.90
3542;DHT22;1785;47.388;8.538;2023-12-14T16:07:06;11.90;99.90
3542;DHT22;1785;47.388;8.538;2023-12-14T16:09:33;11.40;99.90
3542;DHT22;1785;47.388;8.538;2023-12-14T16:11:59;10.50;99.90
3542;DHT22;1785;47.388;8.538;2023-12-14T16:14:29;9.90;99.90
3542;DHT22;1785;47.388;8.538;2023-12-14T16:16:55;9.60;99.90